OICS  Sanandaj  Airport

Iran

Add Bookmark
ICAO OICS
IATA SDG
Type Airport
Status Operational
Latitude
35° 14' 45" N
35.245899
Longitude
47° 0' 33" E
47.009201
Local (DST + 5) UTC (GMT + 4)
Feb 9, 2016 02:24 Feb 8, 2016 22:54
Sunrise-Sunset Local UTC
Begin Civil Twilight 06:46 03:16
Sunrise 07:13 03:43
Sunset 05:59 14:29
End Civil Twilight 06:25 14:55
VFR
VFR
MVFR
MVFR
IFR
IFR
LIFR
LIFR
Unknown
Unavailable

Current Weather

METAR Observed VFR
OICS 082150Z 34008KT 9999 BKN035 M01/M05 Q1023 Mon, Feb 8, 2016 @ 21:50 UTC
(1 Hour, 4 Minutes ago)
Visual Flight Rules
Wind Visibility Clouds Conditions
340° at 8 knots (15 kph) 10 km or more
  • Broken at 3,500 ft AGL
  • No significant weather
Temperatures Readings Precipitation
Current Temp
-1°C
30°F
Dewpoint
-5°C
23°F
Humidity 75%
Altimeter 30.21" Hg
Sea Level Pressure 1,023 mb
Field Elevation
1,373 m
4,505 ft
None Recorded
-
-

CheckWX.com is intended as a tool to help pilots better visualize weather data. It is not intended as a substitute for an official weather briefing obtained from a Flight Service Station. CheckWX.com does not meet the FAA requirements for an official pre-flight weather briefing. Therefore, it's important that pilots still call and obtain an official FSS pre-flight weather briefing.

© 2007-2016 CheckWX.com
22:54:19 UTC